sensor_id;sensor_type;location;lat;lon;timestamp;P1;durP1;ratioP1;P2;durP2;ratioP2
25123;SDS011;13104;51.030;4.686;2023-04-24T00:00:05;27.83;;;14.13;;
25123;SDS011;13104;51.030;4.686;2023-04-24T00:02:34;31.33;;;14.43;;
25123;SDS011;13104;51.030;4.686;2023-04-24T00:05:02;29.27;;;15.68;;
25123;SDS011;13104;51.030;4.686;2023-04-24T00:07:29;29.58;;;15.23;;
25123;SDS011;13104;51.030;4.686;2023-04-24T00:09:56;32.85;;;16.45;;
25123;SDS011;13104;51.030;4.686;2023-04-24T00:12:22;27.50;;;15.40;;
25123;SDS011;13104;51.030;4.686;2023-04-24T00:14:48;28.98;;;17.00;;
25123;SDS011;13104;51.030;4.686;2023-04-24T00:17:14;32.45;;;16.23;;
25123;SDS011;13104;51.030;4.686;2023-04-24T00:19:40;33.83;;;17.65;;
25123;SDS011;13104;51.030;4.686;2023-04-24T00:22:07;32.60;;;17.45;;
25123;SDS011;13104;51.030;4.686;2023-04-24T00:24:33;36.33;;;17.13;;
25123;SDS011;13104;51.030;4.686;2023-04-24T00:26:59;30.60;;;17.60;;
25123;SDS011;13104;51.030;4.686;2023-04-24T00:29:26;37.50;;;17.60;;
25123;SDS011;13104;51.030;4.686;2023-04-24T00:31:53;38.88;;;16.52;;
25123;SDS011;13104;51.030;4.686;2023-04-24T00:34:19;30.23;;;15.98;;
25123;SDS011;13104;51.030;4.686;2023-04-24T00:36:45;25.52;;;16.42;;
25123;SDS011;13104;51.030;4.686;2023-04-24T00:39:14;31.73;;;17.73;;
25123;SDS011;13104;51.030;4.686;2023-04-24T00:41:40;28.45;;;16.52;;
25123;SDS011;13104;51.030;4.686;2023-04-24T00:44:06;25.73;;;15.77;;
25123;SDS011;13104;51.030;4.686;2023-04-24T00:46:33;31.23;;;16.27;;
25123;SDS011;13104;51.030;4.686;2023-04-24T00:49:00;33.65;;;16.70;;
25123;SDS011;13104;51.030;4.686;2023-04-24T00:51:26;33.08;;;17.42;;
25123;SDS011;13104;51.030;4.686;2023-04-24T00:53:52;31.75;;;17.70;;
25123;SDS011;13104;51.030;4.686;2023-04-24T00:56:18;34.28;;;16.98;;
25123;SDS011;13104;51.030;4.686;2023-04-24T00:58:45;30.38;;;15.93;;
25123;SDS011;13104;51.030;4.686;2023-04-24T01:01:11;33.67;;;16.40;;
25123;SDS011;13104;51.030;4.686;2023-04-24T01:03:37;29.48;;;16.30;;
25123;SDS011;13104;51.030;4.686;2023-04-24T01:06:04;28.58;;;16.42;;
25123;SDS011;13104;51.030;4.686;2023-04-24T01:08:31;26.30;;;15.82;;
25123;SDS011;13104;51.030;4.686;2023-04-24T01:10:57;35.08;;;16.92;;
25123;SDS011;13104;51.030;4.686;2023-04-24T01:13:23;31.73;;;15.98;;
25123;SDS011;13104;51.030;4.686;2023-04-24T01:15:50;35.40;;;15.80;;
25123;SDS011;13104;51.030;4.686;2023-04-24T01:18:16;35.38;;;16.13;;
25123;SDS011;13104;51.030;4.686;2023-04-24T01:20:42;27.20;;;16.30;;
25123;SDS011;13104;51.030;4.686;2023-04-24T01:23:10;29.23;;;15.77;;
25123;SDS011;13104;51.030;4.686;2023-04-24T01:25:36;27.75;;;16.48;;
25123;SDS011;13104;51.030;4.686;2023-04-24T01:28:03;28.77;;;15.25;;
25123;SDS011;13104;51.030;4.686;2023-04-24T01:30:30;25.35;;;14.98;;
25123;SDS011;13104;51.030;4.686;2023-04-24T01:32:56;29.10;;;15.88;;
25123;SDS011;13104;51.030;4.686;2023-04-24T01:35:22;28.25;;;15.43;;
25123;SDS011;13104;51.030;4.686;2023-04-24T01:37:49;28.35;;;15.57;;
25123;SDS011;13104;51.030;4.686;2023-04-24T01:40:15;31.02;;;16.75;;
25123;SDS011;13104;51.030;4.686;2023-04-24T01:42:41;33.42;;;16.65;;
25123;SDS011;13104;51.030;4.686;2023-04-24T01:45:07;33.50;;;16.15;;
25123;SDS011;13104;51.030;4.686;2023-04-24T01:47:35;28.70;;;15.98;;
25123;SDS011;13104;51.030;4.686;2023-04-24T01:50:02;32.28;;;15.68;;
25123;SDS011;13104;51.030;4.686;2023-04-24T01:52:28;26.73;;;15.85;;
25123;SDS011;13104;51.030;4.686;2023-04-24T01:54:56;29.10;;;16.40;;
25123;SDS011;13104;51.030;4.686;2023-04-24T01:57:22;27.17;;;15.90;;
25123;SDS011;13104;51.030;4.686;2023-04-24T01:59:48;29.77;;;16.63;;
25123;SDS011;13104;51.030;4.686;2023-04-24T02:02:16;25.85;;;16.13;;
25123;SDS011;13104;51.030;4.686;2023-04-24T02:04:42;25.27;;;15.55;;
25123;SDS011;13104;51.030;4.686;2023-04-24T02:07:08;27.23;;;15.88;;
25123;SDS011;13104;51.030;4.686;2023-04-24T02:09:36;28.63;;;16.17;;
25123;SDS011;13104;51.030;4.686;2023-04-24T02:12:02;20.98;;;14.73;;
25123;SDS011;13104;51.030;4.686;2023-04-24T02:14:28;27.70;;;15.88;;
25123;SDS011;13104;51.030;4.686;2023-04-24T02:16:54;28.25;;;15.18;;
25123;SDS011;13104;51.030;4.686;2023-04-24T02:19:20;28.20;;;15.05;;
25123;SDS011;13104;51.030;4.686;2023-04-24T02:21:46;25.80;;;15.00;;
25123;SDS011;13104;51.030;4.686;2023-04-24T02:24:12;25.85;;;12.70;;
25123;SDS011;13104;51.030;4.686;2023-04-24T02:26:38;24.45;;;13.35;;
25123;SDS011;13104;51.030;4.686;2023-04-24T02:29:04;23.17;;;12.75;;
25123;SDS011;13104;51.030;4.686;2023-04-24T02:31:30;22.55;;;13.13;;
25123;SDS011;13104;51.030;4.686;2023-04-24T02:33:57;21.60;;;12.90;;
25123;SDS011;13104;51.030;4.686;2023-04-24T02:36:23;23.40;;;12.45;;
25123;SDS011;13104;51.030;4.686;2023-04-24T02:38:49;24.35;;;12.05;;
25123;SDS011;13104;51.030;4.686;2023-04-24T02:41:15;20.80;;;11.75;;
25123;SDS011;13104;51.030;4.686;2023-04-24T02:43:41;20.27;;;12.25;;
25123;SDS011;13104;51.030;4.686;2023-04-24T02:46:08;22.42;;;12.65;;
25123;SDS011;13104;51.030;4.686;2023-04-24T02:48:34;24.67;;;13.18;;
25123;SDS011;13104;51.030;4.686;2023-04-24T02:51:00;24.70;;;12.50;;
25123;SDS011;13104;51.030;4.686;2023-04-24T02:53:27;19.42;;;13.43;;
25123;SDS011;13104;51.030;4.686;2023-04-24T02:55:54;23.58;;;14.85;;
25123;SDS011;13104;51.030;4.686;2023-04-24T02:58:20;24.58;;;14.75;;
25123;SDS011;13104;51.030;4.686;2023-04-24T03:00:47;23.70;;;14.25;;
25123;SDS011;13104;51.030;4.686;2023-04-24T03:03:13;27.20;;;14.85;;
25123;SDS011;13104;51.030;4.686;2023-04-24T03:05:40;28.90;;;14.85;;
25123;SDS011;13104;51.030;4.686;2023-04-24T03:08:06;22.50;;;14.90;;
25123;SDS011;13104;51.030;4.686;2023-04-24T03:10:32;23.13;;;15.35;;
25123;SDS011;13104;51.030;4.686;2023-04-24T03:12:58;21.65;;;14.23;;
25123;SDS011;13104;51.030;4.686;2023-04-24T03:15:24;25.98;;;14.88;;
25123;SDS011;13104;51.030;4.686;2023-04-24T03:17:50;24.65;;;15.75;;
25123;SDS011;13104;51.030;4.686;2023-04-24T03:20:17;23.65;;;14.27;;
25123;SDS011;13104;51.030;4.686;2023-04-24T03:22:43;23.15;;;14.50;;
25123;SDS011;13104;51.030;4.686;2023-04-24T03:25:10;26.95;;;15.63;;
25123;SDS011;13104;51.030;4.686;2023-04-24T03:27:36;28.13;;;16.08;;
25123;SDS011;13104;51.030;4.686;2023-04-24T03:30:03;20.05;;;13.02;;
25123;SDS011;13104;51.030;4.686;2023-04-24T03:32:29;23.10;;;13.93;;
25123;SDS011;13104;51.030;4.686;2023-04-24T03:34:57;23.40;;;13.88;;
25123;SDS011;13104;51.030;4.686;2023-04-24T03:37:23;23.50;;;13.98;;
25123;SDS011;13104;51.030;4.686;2023-04-24T03:39:49;23.30;;;14.18;;
25123;SDS011;13104;51.030;4.686;2023-04-24T03:42:15;25.85;;;14.20;;
25123;SDS011;13104;51.030;4.686;2023-04-24T03:44:41;25.17;;;15.23;;
25123;SDS011;13104;51.030;4.686;2023-04-24T03:47:07;24.65;;;15.18;;
25123;SDS011;13104;51.030;4.686;2023-04-24T03:49:34;23.85;;;14.15;;
25123;SDS011;13104;51.030;4.686;2023-04-24T03:52:00;24.70;;;13.90;;
25123;SDS011;13104;51.030;4.686;2023-04-24T03:54:26;20.48;;;14.35;;
25123;SDS011;13104;51.030;4.686;2023-04-24T03:56:52;25.02;;;14.07;;
25123;SDS011;13104;51.030;4.686;2023-04-24T03:59:18;22.52;;;13.48;;
25123;SDS011;13104;51.030;4.686;2023-04-24T04:01:45;18.73;;;13.43;;
25123;SDS011;13104;51.030;4.686;2023-04-24T04:04:11;19.02;;;11.82;;
25123;SDS011;13104;51.030;4.686;2023-04-24T04:06:37;21.45;;;12.65;;
25123;SDS011;13104;51.030;4.686;2023-04-24T04:09:04;19.85;;;12.23;;
25123;SDS011;13104;51.030;4.686;2023-04-24T04:11:30;22.10;;;12.60;;
25123;SDS011;13104;51.030;4.686;2023-04-24T04:13:56;21.42;;;12.30;;
25123;SDS011;13104;51.030;4.686;2023-04-24T04:16:22;17.27;;;11.73;;
25123;SDS011;13104;51.030;4.686;2023-04-24T04:18:49;20.00;;;11.95;;
25123;SDS011;13104;51.030;4.686;2023-04-24T04:21:15;19.08;;;10.95;;
25123;SDS011;13104;51.030;4.686;2023-04-24T04:23:41;15.48;;;8.82;;
25123;SDS011;13104;51.030;4.686;2023-04-24T04:26:07;15.82;;;9.85;;
25123;SDS011;13104;51.030;4.686;2023-04-24T04:28:33;17.08;;;9.52;;
25123;SDS011;13104;51.030;4.686;2023-04-24T04:31:00;14.57;;;8.88;;
25123;SDS011;13104;51.030;4.686;2023-04-24T04:33:26;16.83;;;9.20;;
25123;SDS011;13104;51.030;4.686;2023-04-24T04:35:52;14.20;;;8.73;;
25123;SDS011;13104;51.030;4.686;2023-04-24T04:38:19;11.10;;;7.78;;
25123;SDS011;13104;51.030;4.686;2023-04-24T04:40:45;11.10;;;7.55;;
25123;SDS011;13104;51.030;4.686;2023-04-24T04:43:12;13.50;;;7.57;;
25123;SDS011;13104;51.030;4.686;2023-04-24T04:45:39;12.25;;;7.13;;
25123;SDS011;13104;51.030;4.686;2023-04-24T04:48:07;11.98;;;6.40;;
25123;SDS011;13104;51.030;4.686;2023-04-24T04:50:37;9.73;;;6.10;;
25123;SDS011;13104;51.030;4.686;2023-04-24T04:53:04;11.90;;;5.70;;
25123;SDS011;13104;51.030;4.686;2023-04-24T04:55:30;13.45;;;6.35;;
25123;SDS011;13104;51.030;4.686;2023-04-24T04:57:56;10.05;;;7.00;;
25123;SDS011;13104;51.030;4.686;2023-04-24T05:00:23;12.35;;;6.47;;
25123;SDS011;13104;51.030;4.686;2023-04-24T05:02:50;12.32;;;7.50;;
25123;SDS011;13104;51.030;4.686;2023-04-24T05:05:16;14.65;;;8.70;;
25123;SDS011;13104;51.030;4.686;2023-04-24T05:07:43;17.23;;;9.35;;
25123;SDS011;13104;51.030;4.686;2023-04-24T05:10:09;14.75;;;9.73;;
25123;SDS011;13104;51.030;4.686;2023-04-24T05:12:36;18.48;;;10.00;;
25123;SDS011;13104;51.030;4.686;2023-04-24T05:15:02;19.38;;;10.70;;
25123;SDS011;13104;51.030;4.686;2023-04-24T05:17:28;21.63;;;11.13;;
25123;SDS011;13104;51.030;4.686;2023-04-24T05:19:55;18.67;;;11.63;;
25123;SDS011;13104;51.030;4.686;2023-04-24T05:22:21;20.00;;;12.27;;
25123;SDS011;13104;51.030;4.686;2023-04-24T05:24:48;24.67;;;12.25;;
25123;SDS011;13104;51.030;4.686;2023-04-24T05:27:14;21.05;;;13.10;;
25123;SDS011;13104;51.030;4.686;2023-04-24T05:29:41;25.48;;;13.27;;
25123;SDS011;13104;51.030;4.686;2023-04-24T05:32:08;20.50;;;12.57;;
25123;SDS011;13104;51.030;4.686;2023-04-24T05:34:34;20.65;;;11.93;;
25123;SDS011;13104;51.030;4.686;2023-04-24T05:37:01;19.83;;;11.68;;
25123;SDS011;13104;51.030;4.686;2023-04-24T05:39:27;21.67;;;12.45;;
25123;SDS011;13104;51.030;4.686;2023-04-24T05:41:54;16.58;;;11.80;;
25123;SDS011;13104;51.030;4.686;2023-04-24T05:44:22;25.15;;;13.63;;
25123;SDS011;13104;51.030;4.686;2023-04-24T05:46:49;27.13;;;14.70;;
25123;SDS011;13104;51.030;4.686;2023-04-24T05:49:15;28.48;;;13.68;;
25123;SDS011;13104;51.030;4.686;2023-04-24T05:51:41;27.40;;;14.38;;
25123;SDS011;13104;51.030;4.686;2023-04-24T05:54:08;20.75;;;12.13;;
25123;SDS011;13104;51.030;4.686;2023-04-24T05:56:35;22.45;;;11.45;;
25123;SDS011;13104;51.030;4.686;2023-04-24T05:59:01;26.55;;;12.75;;
25123;SDS011;13104;51.030;4.686;2023-04-24T06:01:28;20.20;;;12.25;;
25123;SDS011;13104;51.030;4.686;2023-04-24T06:03:54;26.45;;;12.95;;
25123;SDS011;13104;51.030;4.686;2023-04-24T06:06:20;29.55;;;14.07;;
25123;SDS011;13104;51.030;4.686;2023-04-24T06:08:47;29.98;;;15.23;;
25123;SDS011;13104;51.030;4.686;2023-04-24T06:11:13;28.15;;;15.02;;
25123;SDS011;13104;51.030;4.686;2023-04-24T06:13:39;34.50;;;15.63;;
25123;SDS011;13104;51.030;4.686;2023-04-24T06:16:06;35.53;;;15.75;;
25123;SDS011;13104;51.030;4.686;2023-04-24T06:18:32;36.97;;;16.92;;
25123;SDS011;13104;51.030;4.686;2023-04-24T06:20:58;32.00;;;16.13;;
25123;SDS011;13104;51.030;4.686;2023-04-24T06:23:24;31.15;;;16.38;;
25123;SDS011;13104;51.030;4.686;2023-04-24T06:25:51;33.50;;;16.05;;
25123;SDS011;13104;51.030;4.686;2023-04-24T06:28:17;34.53;;;17.55;;
25123;SDS011;13104;51.030;4.686;2023-04-24T06:30:43;29.20;;;16.33;;
25123;SDS011;13104;51.030;4.686;2023-04-24T06:33:09;33.90;;;15.88;;
25123;SDS011;13104;51.030;4.686;2023-04-24T06:35:36;31.67;;;17.05;;
25123;SDS011;13104;51.030;4.686;2023-04-24T06:38:03;31.48;;;17.35;;
25123;SDS011;13104;51.030;4.686;2023-04-24T06:40:29;27.10;;;16.35;;
25123;SDS011;13104;51.030;4.686;2023-04-24T06:42:56;39.30;;;17.85;;
25123;SDS011;13104;51.030;4.686;2023-04-24T06:45:25;31.58;;;16.48;;
25123;SDS011;13104;51.030;4.686;2023-04-24T06:47:54;35.60;;;17.83;;
25123;SDS011;13104;51.030;4.686;2023-04-24T06:50:20;35.53;;;18.13;;
25123;SDS011;13104;51.030;4.686;2023-04-24T06:52:46;31.95;;;19.10;;
25123;SDS011;13104;51.030;4.686;2023-04-24T06:55:13;35.33;;;18.13;;
25123;SDS011;13104;51.030;4.686;2023-04-24T06:57:41;36.72;;;18.85;;
25123;SDS011;13104;51.030;4.686;2023-04-24T07:00:07;39.10;;;19.92;;
25123;SDS011;13104;51.030;4.686;2023-04-24T07:02:34;37.30;;;19.55;;
25123;SDS011;13104;51.030;4.686;2023-04-24T07:05:00;39.33;;;20.50;;
25123;SDS011;13104;51.030;4.686;2023-04-24T07:07:27;37.95;;;19.98;;
25123;SDS011;13104;51.030;4.686;2023-04-24T07:09:53;39.20;;;19.63;;
25123;SDS011;13104;51.030;4.686;2023-04-24T07:12:21;37.25;;;19.75;;
25123;SDS011;13104;51.030;4.686;2023-04-24T07:14:47;39.95;;;19.65;;
25123;SDS011;13104;51.030;4.686;2023-04-24T07:17:13;35.90;;;19.60;;
25123;SDS011;13104;51.030;4.686;2023-04-24T07:19:40;40.72;;;18.92;;
25123;SDS011;13104;51.030;4.686;2023-04-24T07:22:06;37.70;;;19.73;;
25123;SDS011;13104;51.030;4.686;2023-04-24T07:24:32;35.63;;;17.08;;
25123;SDS011;13104;51.030;4.686;2023-04-24T07:26:58;27.15;;;15.82;;
25123;SDS011;13104;51.030;4.686;2023-04-24T07:29:26;30.80;;;15.18;;
25123;SDS011;13104;51.030;4.686;2023-04-24T07:31:52;26.45;;;14.45;;
25123;SDS011;13104;51.030;4.686;2023-04-24T07:34:19;30.05;;;14.10;;
25123;SDS011;13104;51.030;4.686;2023-04-24T07:36:45;23.73;;;12.45;;
25123;SDS011;13104;51.030;4.686;2023-04-24T07:39:12;20.25;;;11.55;;
25123;SDS011;13104;51.030;4.686;2023-04-24T07:41:38;20.00;;;10.93;;
25123;SDS011;13104;51.030;4.686;2023-04-24T07:44:04;24.88;;;9.48;;
25123;SDS011;13104;51.030;4.686;2023-04-24T07:46:30;18.77;;;8.63;;
25123;SDS011;13104;51.030;4.686;2023-04-24T07:48:57;20.30;;;8.63;;
25123;SDS011;13104;51.030;4.686;2023-04-24T07:51:24;17.35;;;7.95;;
25123;SDS011;13104;51.030;4.686;2023-04-24T07:53:53;18.27;;;7.63;;
25123;SDS011;13104;51.030;4.686;2023-04-24T07:56:22;21.05;;;7.60;;
25123;SDS011;13104;51.030;4.686;2023-04-24T07:58:48;18.08;;;6.82;;
25123;SDS011;13104;51.030;4.686;2023-04-24T08:01:15;16.17;;;6.18;;
25123;SDS011;13104;51.030;4.686;2023-04-24T08:03:41;17.88;;;6.00;;
25123;SDS011;13104;51.030;4.686;2023-04-24T08:06:07;16.70;;;6.70;;
25123;SDS011;13104;51.030;4.686;2023-04-24T08:08:33;20.75;;;6.10;;
25123;SDS011;13104;51.030;4.686;2023-04-24T08:11:00;14.60;;;5.43;;
25123;SDS011;13104;51.030;4.686;2023-04-24T08:13:26;17.60;;;6.63;;
25123;SDS011;13104;51.030;4.686;2023-04-24T08:15:52;16.15;;;6.72;;
25123;SDS011;13104;51.030;4.686;2023-04-24T08:18:18;14.25;;;6.15;;
25123;SDS011;13104;51.030;4.686;2023-04-24T08:20:44;14.70;;;6.60;;
25123;SDS011;13104;51.030;4.686;2023-04-24T08:23:10;19.17;;;6.05;;
25123;SDS011;13104;51.030;4.686;2023-04-24T08:25:37;25.25;;;6.60;;
25123;SDS011;13104;51.030;4.686;2023-04-24T08:28:05;16.75;;;6.85;;
25123;SDS011;13104;51.030;4.686;2023-04-24T08:30:31;20.13;;;7.30;;
25123;SDS011;13104;51.030;4.686;2023-04-24T08:32:57;21.23;;;7.88;;
25123;SDS011;13104;51.030;4.686;2023-04-24T08:35:24;28.35;;;7.72;;
25123;SDS011;13104;51.030;4.686;2023-04-24T08:37:51;23.50;;;8.10;;
25123;SDS011;13104;51.030;4.686;2023-04-24T08:40:18;27.67;;;9.32;;
25123;SDS011;13104;51.030;4.686;2023-04-24T08:42:45;32.78;;;10.95;;
25123;SDS011;13104;51.030;4.686;2023-04-24T08:45:12;29.30;;;10.90;;
25123;SDS011;13104;51.030;4.686;2023-04-24T08:47:39;25.48;;;10.38;;
25123;SDS011;13104;51.030;4.686;2023-04-24T08:50:05;26.88;;;12.07;;
25123;SDS011;13104;51.030;4.686;2023-04-24T08:52:33;31.17;;;12.05;;
25123;SDS011;13104;51.030;4.686;2023-04-24T08:54:59;30.83;;;11.02;;
25123;SDS011;13104;51.030;4.686;2023-04-24T08:57:26;25.25;;;9.38;;
25123;SDS011;13104;51.030;4.686;2023-04-24T08:59:53;27.00;;;9.52;;
25123;SDS011;13104;51.030;4.686;2023-04-24T09:02:20;24.08;;;8.93;;
25123;SDS011;13104;51.030;4.686;2023-04-24T09:04:46;29.67;;;9.57;;
25123;SDS011;13104;51.030;4.686;2023-04-24T09:07:14;23.27;;;9.70;;
25123;SDS011;13104;51.030;4.686;2023-04-24T09:09:40;23.98;;;11.18;;
25123;SDS011;13104;51.030;4.686;2023-04-24T09:12:07;29.98;;;11.25;;
25123;SDS011;13104;51.030;4.686;2023-04-24T09:14:35;23.95;;;9.90;;
25123;SDS011;13104;51.030;4.686;2023-04-24T09:17:04;27.38;;;9.88;;
25123;SDS011;13104;51.030;4.686;2023-04-24T09:19:31;31.23;;;10.02;;
25123;SDS011;13104;51.030;4.686;2023-04-24T09:21:57;24.40;;;10.25;;
25123;SDS011;13104;51.030;4.686;2023-04-24T09:24:23;22.92;;;9.98;;
25123;SDS011;13104;51.030;4.686;2023-04-24T09:26:59;25.80;;;10.20;;
25123;SDS011;13104;51.030;4.686;2023-04-24T09:29:28;24.08;;;9.82;;
25123;SDS011;13104;51.030;4.686;2023-04-24T09:31:56;21.52;;;8.55;;
25123;SDS011;13104;51.030;4.686;2023-04-24T09:34:23;24.17;;;10.02;;
25123;SDS011;13104;51.030;4.686;2023-04-24T09:36:50;24.60;;;10.65;;
25123;SDS011;13104;51.030;4.686;2023-04-24T09:39:17;30.40;;;11.90;;
25123;SDS011;13104;51.030;4.686;2023-04-24T09:41:55;25.83;;;11.85;;
25123;SDS011;13104;51.030;4.686;2023-04-24T09:44:26;30.67;;;12.63;;
25123;SDS011;13104;51.030;4.686;2023-04-24T09:46:56;26.08;;;12.65;;
25123;SDS011;13104;51.030;4.686;2023-04-24T09:49:26;30.50;;;12.68;;
25123;SDS011;13104;51.030;4.686;2023-04-24T09:52:06;29.40;;;13.48;;
25123;SDS011;13104;51.030;4.686;2023-04-24T09:54:32;30.30;;;13.80;;
25123;SDS011;13104;51.030;4.686;2023-04-24T09:56:58;27.55;;;12.32;;
25123;SDS011;13104;51.030;4.686;2023-04-24T09:59:25;29.30;;;13.00;;
25123;SDS011;13104;51.030;4.686;2023-04-24T10:01:52;25.40;;;12.32;;
25123;SDS011;13104;51.030;4.686;2023-04-24T10:04:19;23.05;;;8.57;;
25123;SDS011;13104;51.030;4.686;2023-04-24T10:06:46;25.42;;;9.10;;
25123;SDS011;13104;51.030;4.686;2023-04-24T10:09:14;16.95;;;7.75;;
25123;SDS011;13104;51.030;4.686;2023-04-24T10:11:43;15.07;;;6.68;;
25123;SDS011;13104;51.030;4.686;2023-04-24T10:14:14;18.70;;;6.60;;
25123;SDS011;13104;51.030;4.686;2023-04-24T10:16:40;15.70;;;7.60;;
25123;SDS011;13104;51.030;4.686;2023-04-24T10:19:07;16.38;;;7.25;;
25123;SDS011;13104;51.030;4.686;2023-04-24T10:21:34;21.60;;;8.50;;
25123;SDS011;13104;51.030;4.686;2023-04-24T10:24:00;15.88;;;7.78;;
25123;SDS011;13104;51.030;4.686;2023-04-24T10:26:28;20.50;;;8.05;;
25123;SDS011;13104;51.030;4.686;2023-04-24T10:28:54;14.02;;;6.38;;
25123;SDS011;13104;51.030;4.686;2023-04-24T10:31:23;16.17;;;6.45;;
25123;SDS011;13104;51.030;4.686;2023-04-24T10:33:50;13.35;;;6.00;;
25123;SDS011;13104;51.030;4.686;2023-04-24T10:36:18;17.65;;;6.43;;
25123;SDS011;13104;51.030;4.686;2023-04-24T10:38:44;18.45;;;6.75;;
25123;SDS011;13104;51.030;4.686;2023-04-24T10:41:12;16.35;;;6.10;;
25123;SDS011;13104;51.030;4.686;2023-04-24T10:43:44;14.52;;;5.50;;
25123;SDS011;13104;51.030;4.686;2023-04-24T10:46:11;11.18;;;4.55;;
25123;SDS011;13104;51.030;4.686;2023-04-24T10:48:43;9.75;;;3.70;;
25123;SDS011;13104;51.030;4.686;2023-04-24T10:51:12;8.13;;;3.70;;
25123;SDS011;13104;51.030;4.686;2023-04-24T10:53:39;10.88;;;4.07;;
25123;SDS011;13104;51.030;4.686;2023-04-24T10:56:06;9.52;;;4.25;;
25123;SDS011;13104;51.030;4.686;2023-04-24T10:58:49;12.90;;;4.97;;
25123;SDS011;13104;51.030;4.686;2023-04-24T11:03:50;20.23;;;5.82;;
25123;SDS011;13104;51.030;4.686;2023-04-24T11:06:27;18.13;;;5.13;;
25123;SDS011;13104;51.030;4.686;2023-04-24T11:08:57;18.25;;;6.20;;
25123;SDS011;13104;51.030;4.686;2023-04-24T11:11:24;15.20;;;5.45;;
25123;SDS011;13104;51.030;4.686;2023-04-24T11:18:50;13.52;;;5.90;;
25123;SDS011;13104;51.030;4.686;2023-04-24T11:21:19;13.43;;;5.60;;
25123;SDS011;13104;51.030;4.686;2023-04-24T11:23:45;11.27;;;5.93;;
25123;SDS011;13104;51.030;4.686;2023-04-24T11:28:43;11.60;;;5.80;;
25123;SDS011;13104;51.030;4.686;2023-04-24T11:33:55;12.88;;;5.57;;
25123;SDS011;13104;51.030;4.686;2023-04-24T11:36:21;13.10;;;5.07;;
25123;SDS011;13104;51.030;4.686;2023-04-24T11:38:47;13.38;;;5.07;;
25123;SDS011;13104;51.030;4.686;2023-04-24T11:41:13;13.82;;;5.38;;
25123;SDS011;13104;51.030;4.686;2023-04-24T11:43:39;20.10;;;6.30;;
25123;SDS011;13104;51.030;4.686;2023-04-24T11:46:07;16.00;;;6.55;;
25123;SDS011;13104;51.030;4.686;2023-04-24T11:48:36;12.75;;;5.82;;
25123;SDS011;13104;51.030;4.686;2023-04-24T11:51:05;16.38;;;6.85;;
25123;SDS011;13104;51.030;4.686;2023-04-24T11:53:31;13.00;;;6.03;;
25123;SDS011;13104;51.030;4.686;2023-04-24T11:56:02;14.57;;;6.18;;
25123;SDS011;13104;51.030;4.686;2023-04-24T11:58:28;14.13;;;6.20;;
25123;SDS011;13104;51.030;4.686;2023-04-24T12:00:57;12.18;;;6.18;;
25123;SDS011;13104;51.030;4.686;2023-04-24T12:03:26;12.75;;;6.00;;
25123;SDS011;13104;51.030;4.686;2023-04-24T12:05:52;12.20;;;5.18;;
25123;SDS011;13104;51.030;4.686;2023-04-24T12:08:28;16.67;;;5.75;;
25123;SDS011;13104;51.030;4.686;2023-04-24T12:10:55;10.43;;;5.60;;
25123;SDS011;13104;51.030;4.686;2023-04-24T12:13:21;13.15;;;5.60;;
25123;SDS011;13104;51.030;4.686;2023-04-24T12:15:47;11.02;;;5.43;;
25123;SDS011;13104;51.030;4.686;2023-04-24T12:18:13;11.77;;;5.15;;
25123;SDS011;13104;51.030;4.686;2023-04-24T12:20:42;9.20;;;4.72;;
25123;SDS011;13104;51.030;4.686;2023-04-24T12:23:08;12.15;;;5.47;;
25123;SDS011;13104;51.030;4.686;2023-04-24T12:25:34;11.05;;;5.43;;
25123;SDS011;13104;51.030;4.686;2023-04-24T12:30:33;12.18;;;5.28;;
25123;SDS011;13104;51.030;4.686;2023-04-24T12:33:00;15.40;;;5.47;;
25123;SDS011;13104;51.030;4.686;2023-04-24T12:35:30;14.55;;;5.55;;
25123;SDS011;13104;51.030;4.686;2023-04-24T12:38:08;15.20;;;5.43;;
25123;SDS011;13104;51.030;4.686;2023-04-24T12:43:21;11.48;;;5.57;;
25123;SDS011;13104;51.030;4.686;2023-04-24T12:45:47;12.90;;;5.38;;
25123;SDS011;13104;51.030;4.686;2023-04-24T12:48:13;14.13;;;5.85;;
25123;SDS011;13104;51.030;4.686;2023-04-24T12:50:40;15.82;;;6.25;;
25123;SDS011;13104;51.030;4.686;2023-04-24T12:53:07;9.73;;;4.93;;
25123;SDS011;13104;51.030;4.686;2023-04-24T12:55:34;10.77;;;5.45;;
25123;SDS011;13104;51.030;4.686;2023-04-24T12:58:00;10.60;;;4.72;;
25123;SDS011;13104;51.030;4.686;2023-04-24T13:00:27;10.35;;;3.75;;
25123;SDS011;13104;51.030;4.686;2023-04-24T13:02:54;11.10;;;4.35;;
25123;SDS011;13104;51.030;4.686;2023-04-24T13:05:20;10.80;;;4.55;;
25123;SDS011;13104;51.030;4.686;2023-04-24T13:07:46;6.25;;;3.80;;
25123;SDS011;13104;51.030;4.686;2023-04-24T13:10:12;9.30;;;3.83;;
25123;SDS011;13104;51.030;4.686;2023-04-24T13:12:39;13.05;;;3.25;;
25123;SDS011;13104;51.030;4.686;2023-04-24T13:15:05;7.57;;;3.40;;
25123;SDS011;13104;51.030;4.686;2023-04-24T13:17:32;6.63;;;2.80;;
25123;SDS011;13104;51.030;4.686;2023-04-24T13:20:01;8.38;;;3.38;;
25123;SDS011;13104;51.030;4.686;2023-04-24T13:22:28;9.43;;;4.35;;
25123;SDS011;13104;51.030;4.686;2023-04-24T13:24:54;11.27;;;4.22;;
25123;SDS011;13104;51.030;4.686;2023-04-24T13:27:21;9.10;;;4.18;;
25123;SDS011;13104;51.030;4.686;2023-04-24T13:29:47;10.82;;;4.40;;
25123;SDS011;13104;51.030;4.686;2023-04-24T13:32:13;15.13;;;4.15;;
25123;SDS011;13104;51.030;4.686;2023-04-24T13:34:39;7.43;;;4.05;;
25123;SDS011;13104;51.030;4.686;2023-04-24T13:37:06;7.70;;;4.13;;
25123;SDS011;13104;51.030;4.686;2023-04-24T13:39:33;11.50;;;4.00;;
25123;SDS011;13104;51.030;4.686;2023-04-24T13:41:59;10.00;;;3.92;;
25123;SDS011;13104;51.030;4.686;2023-04-24T13:44:25;9.95;;;3.40;;
25123;SDS011;13104;51.030;4.686;2023-04-24T13:46:52;7.50;;;2.75;;
25123;SDS011;13104;51.030;4.686;2023-04-24T13:49:19;5.30;;;2.53;;
25123;SDS011;13104;51.030;4.686;2023-04-24T13:51:46;14.70;;;2.88;;
25123;SDS011;13104;51.030;4.686;2023-04-24T13:54:12;8.73;;;3.10;;
25123;SDS011;13104;51.030;4.686;2023-04-24T13:56:39;6.88;;;2.80;;
25123;SDS011;13104;51.030;4.686;2023-04-24T13:59:05;5.55;;;2.60;;
25123;SDS011;13104;51.030;4.686;2023-04-24T14:01:32;12.43;;;3.33;;
25123;SDS011;13104;51.030;4.686;2023-04-24T14:03:59;8.82;;;3.20;;
25123;SDS011;13104;51.030;4.686;2023-04-24T14:06:25;5.70;;;3.00;;
25123;SDS011;13104;51.030;4.686;2023-04-24T14:08:51;11.60;;;3.50;;
25123;SDS011;13104;51.030;4.686;2023-04-24T14:11:18;6.82;;;3.58;;
25123;SDS011;13104;51.030;4.686;2023-04-24T14:13:44;7.97;;;3.17;;
25123;SDS011;13104;51.030;4.686;2023-04-24T14:16:11;9.02;;;3.50;;
25123;SDS011;13104;51.030;4.686;2023-04-24T14:18:37;7.10;;;3.15;;
25123;SDS011;13104;51.030;4.686;2023-04-24T14:21:04;11.60;;;3.70;;
25123;SDS011;13104;51.030;4.686;2023-04-24T14:23:30;7.53;;;3.80;;
25123;SDS011;13104;51.030;4.686;2023-04-24T14:25:59;9.32;;;3.30;;
25123;SDS011;13104;51.030;4.686;2023-04-24T14:28:36;8.13;;;3.70;;
25123;SDS011;13104;51.030;4.686;2023-04-24T14:31:02;6.55;;;3.10;;
25123;SDS011;13104;51.030;4.686;2023-04-24T14:33:28;5.30;;;2.47;;
25123;SDS011;13104;51.030;4.686;2023-04-24T14:35:54;5.07;;;2.10;;
25123;SDS011;13104;51.030;4.686;2023-04-24T14:38:21;6.25;;;2.05;;
25123;SDS011;13104;51.030;4.686;2023-04-24T14:40:47;4.60;;;2.20;;
25123;SDS011;13104;51.030;4.686;2023-04-24T14:43:13;5.35;;;2.33;;